Terminal Aerodrome Forecast
Issued by NWS

Home | Current Version | Previous Version | Text Only | Print | Product List | Glossary On
Versions: 1 2 3 4 5 6 7 8 9 10 11 12 13 14 15 16 17 18
000
FTUS42 TJSJ 230500
TAFNCM
TAF
TNCM 230533Z 2306/2406 09015KT P6SM VCSH SCT018
     FM231500 09016G24KT P6SM FEW020
     FM232300 09013KT P6SM FEW020=

USA.gov is the U.S. government's official web portal to all federal, state and local government web resources and services.